sensor_id;sensor_type;location;lat;lon;timestamp;P1;durP1;ratioP1;P2;durP2;ratioP2
3036;SDS011;1528;52.550;13.408;2023-11-18T00:02:17;14.80;;;13.80;;
3036;SDS011;1528;52.550;13.408;2023-11-18T00:05:02;16.90;;;15.93;;
3036;SDS011;1528;52.550;13.408;2023-11-18T00:07:48;15.80;;;14.60;;
3036;SDS011;1528;52.550;13.408;2023-11-18T00:10:34;14.10;;;13.30;;
3036;SDS011;1528;52.550;13.408;2023-11-18T00:13:19;15.27;;;14.37;;
3036;SDS011;1528;52.550;13.408;2023-11-18T00:16:07;15.43;;;14.53;;
3036;SDS011;1528;52.550;13.408;2023-11-18T00:18:55;14.80;;;13.03;;
3036;SDS011;1528;52.550;13.408;2023-11-18T00:21:42;13.50;;;12.67;;
3036;SDS011;1528;52.550;13.408;2023-11-18T00:24:28;14.63;;;13.73;;
3036;SDS011;1528;52.550;13.408;2023-11-18T00:27:14;14.03;;;13.13;;
3036;SDS011;1528;52.550;13.408;2023-11-18T00:29:59;15.20;;;14.30;;
3036;SDS011;1528;52.550;13.408;2023-11-18T00:32:46;15.77;;;14.87;;
3036;SDS011;1528;52.550;13.408;2023-11-18T00:35:31;14.70;;;13.80;;
3036;SDS011;1528;52.550;13.408;2023-11-18T00:38:17;12.70;;;11.80;;
3036;SDS011;1528;52.550;13.408;2023-11-18T00:41:03;13.83;;;13.03;;
3036;SDS011;1528;52.550;13.408;2023-11-18T00:43:50;15.00;;;14.10;;
3036;SDS011;1528;52.550;13.408;2023-11-18T00:46:37;13.20;;;12.33;;
3036;SDS011;1528;52.550;13.408;2023-11-18T00:49:24;14.10;;;13.10;;
3036;SDS011;1528;52.550;13.408;2023-11-18T00:52:10;13.03;;;12.10;;
3036;SDS011;1528;52.550;13.408;2023-11-18T00:54:56;13.57;;;12.67;;
3036;SDS011;1528;52.550;13.408;2023-11-18T00:57:41;13.43;;;12.43;;
3036;SDS011;1528;52.550;13.408;2023-11-18T01:00:27;14.33;;;13.13;;
3036;SDS011;1528;52.550;13.408;2023-11-18T01:03:13;12.87;;;12.07;;
3036;SDS011;1528;52.550;13.408;2023-11-18T01:06:00;15.03;;;14.23;;
3036;SDS011;1528;52.550;13.408;2023-11-18T01:08:46;13.53;;;12.43;;
3036;SDS011;1528;52.550;13.408;2023-11-18T01:11:31;13.97;;;13.17;;
3036;SDS011;1528;52.550;13.408;2023-11-18T01:14:17;14.77;;;13.87;;
3036;SDS011;1528;52.550;13.408;2023-11-18T01:17:05;14.27;;;13.37;;
3036;SDS011;1528;52.550;13.408;2023-11-18T01:19:53;14.53;;;13.63;;
3036;SDS011;1528;52.550;13.408;2023-11-18T01:22:39;17.57;;;16.50;;
3036;SDS011;1528;52.550;13.408;2023-11-18T01:25:27;14.17;;;13.37;;
3036;SDS011;1528;52.550;13.408;2023-11-18T01:28:13;16.30;;;15.30;;
3036;SDS011;1528;52.550;13.408;2023-11-18T01:30:58;14.80;;;13.87;;
3036;SDS011;1528;52.550;13.408;2023-11-18T01:33:44;14.60;;;13.37;;
3036;SDS011;1528;52.550;13.408;2023-11-18T01:36:30;14.13;;;13.20;;
3036;SDS011;1528;52.550;13.408;2023-11-18T01:39:17;15.77;;;14.77;;
3036;SDS011;1528;52.550;13.408;2023-11-18T01:42:03;15.13;;;14.23;;
3036;SDS011;1528;52.550;13.408;2023-11-18T01:44:48;15.37;;;14.47;;
3036;SDS011;1528;52.550;13.408;2023-11-18T01:47:35;14.50;;;13.60;;
3036;SDS011;1528;52.550;13.408;2023-11-18T01:50:20;17.00;;;16.10;;
3036;SDS011;1528;52.550;13.408;2023-11-18T01:53:06;14.30;;;13.40;;
3036;SDS011;1528;52.550;13.408;2023-11-18T01:55:55;15.43;;;14.53;;
3036;SDS011;1528;52.550;13.408;2023-11-18T01:58:42;15.40;;;14.40;;
3036;SDS011;1528;52.550;13.408;2023-11-18T02:01:28;15.30;;;14.40;;
3036;SDS011;1528;52.550;13.408;2023-11-18T02:04:14;15.87;;;14.63;;
3036;SDS011;1528;52.550;13.408;2023-11-18T02:07:00;14.40;;;13.60;;
3036;SDS011;1528;52.550;13.408;2023-11-18T02:09:52;15.90;;;14.90;;
3036;SDS011;1528;52.550;13.408;2023-11-18T02:12:41;16.67;;;15.77;;
3036;SDS011;1528;52.550;13.408;2023-11-18T02:15:31;13.80;;;13.00;;
3036;SDS011;1528;52.550;13.408;2023-11-18T02:18:19;16.13;;;14.97;;
3036;SDS011;1528;52.550;13.408;2023-11-18T02:21:05;16.70;;;15.70;;
3036;SDS011;1528;52.550;13.408;2023-11-18T02:23:54;15.40;;;14.33;;
3036;SDS011;1528;52.550;13.408;2023-11-18T02:26:40;17.63;;;16.73;;
3036;SDS011;1528;52.550;13.408;2023-11-18T02:29:29;17.73;;;16.60;;
3036;SDS011;1528;52.550;13.408;2023-11-18T02:32:20;16.00;;;15.00;;
3036;SDS011;1528;52.550;13.408;2023-11-18T02:35:15;16.70;;;15.70;;
3036;SDS011;1528;52.550;13.408;2023-11-18T02:38:06;19.93;;;18.83;;
3036;SDS011;1528;52.550;13.408;2023-11-18T02:40:54;15.60;;;14.70;;
3036;SDS011;1528;52.550;13.408;2023-11-18T02:43:44;17.00;;;16.00;;
3036;SDS011;1528;52.550;13.408;2023-11-18T02:46:31;15.53;;;14.63;;
3036;SDS011;1528;52.550;13.408;2023-11-18T02:49:17;16.70;;;15.70;;
3036;SDS011;1528;52.550;13.408;2023-11-18T02:52:03;17.97;;;16.87;;
3036;SDS011;1528;52.550;13.408;2023-11-18T02:54:49;16.43;;;15.17;;
3036;SDS011;1528;52.550;13.408;2023-11-18T02:57:35;16.20;;;15.10;;
3036;SDS011;1528;52.550;13.408;2023-11-18T03:00:23;17.20;;;16.30;;
3036;SDS011;1528;52.550;13.408;2023-11-18T03:03:08;17.77;;;16.83;;
3036;SDS011;1528;52.550;13.408;2023-11-18T03:05:54;17.60;;;16.50;;
3036;SDS011;1528;52.550;13.408;2023-11-18T03:08:40;18.53;;;17.43;;
3036;SDS011;1528;52.550;13.408;2023-11-18T03:11:26;16.67;;;15.57;;
3036;SDS011;1528;52.550;13.408;2023-11-18T03:14:13;15.53;;;14.60;;
3036;SDS011;1528;52.550;13.408;2023-11-18T03:17:00;14.70;;;13.70;;
3036;SDS011;1528;52.550;13.408;2023-11-18T03:19:50;14.97;;;13.97;;
3036;SDS011;1528;52.550;13.408;2023-11-18T03:22:35;15.50;;;14.63;;
3036;SDS011;1528;52.550;13.408;2023-11-18T03:25:21;15.80;;;14.80;;
3036;SDS011;1528;52.550;13.408;2023-11-18T03:28:07;13.63;;;12.83;;
3036;SDS011;1528;52.550;13.408;2023-11-18T03:30:52;15.20;;;14.30;;
3036;SDS011;1528;52.550;13.408;2023-11-18T03:33:39;16.03;;;14.63;;
3036;SDS011;1528;52.550;13.408;2023-11-18T03:36:25;14.80;;;13.87;;
3036;SDS011;1528;52.550;13.408;2023-11-18T03:39:11;15.70;;;14.73;;
3036;SDS011;1528;52.550;13.408;2023-11-18T03:41:57;14.63;;;13.83;;
3036;SDS011;1528;52.550;13.408;2023-11-18T03:44:43;17.20;;;16.30;;
3036;SDS011;1528;52.550;13.408;2023-11-18T03:47:31;13.80;;;12.80;;
3036;SDS011;1528;52.550;13.408;2023-11-18T03:50:18;17.03;;;15.93;;
3036;SDS011;1528;52.550;13.408;2023-11-18T03:53:04;14.30;;;13.20;;
3036;SDS011;1528;52.550;13.408;2023-11-18T03:55:50;13.30;;;12.50;;
3036;SDS011;1528;52.550;13.408;2023-11-18T03:58:36;14.53;;;13.53;;
3036;SDS011;1528;52.550;13.408;2023-11-18T04:01:21;14.93;;;13.93;;
3036;SDS011;1528;52.550;13.408;2023-11-18T04:04:07;14.53;;;13.47;;
3036;SDS011;1528;52.550;13.408;2023-11-18T04:06:55;14.80;;;13.90;;
3036;SDS011;1528;52.550;13.408;2023-11-18T04:09:40;12.17;;;11.37;;
3036;SDS011;1528;52.550;13.408;2023-11-18T04:12:27;12.10;;;11.40;;
3036;SDS011;1528;52.550;13.408;2023-11-18T04:15:14;12.77;;;11.93;;
3036;SDS011;1528;52.550;13.408;2023-11-18T04:18:00;15.90;;;15.00;;
3036;SDS011;1528;52.550;13.408;2023-11-18T04:20:46;14.67;;;13.77;;
3036;SDS011;1528;52.550;13.408;2023-11-18T04:23:33;15.03;;;14.23;;
3036;SDS011;1528;52.550;13.408;2023-11-18T04:26:19;13.73;;;12.80;;
3036;SDS011;1528;52.550;13.408;2023-11-18T04:29:04;12.97;;;12.17;;
3036;SDS011;1528;52.550;13.408;2023-11-18T04:31:50;14.90;;;14.00;;
3036;SDS011;1528;52.550;13.408;2023-11-18T04:34:36;12.90;;;12.10;;
3036;SDS011;1528;52.550;13.408;2023-11-18T04:37:22;14.80;;;13.70;;
3036;SDS011;1528;52.550;13.408;2023-11-18T04:40:10;15.03;;;14.03;;
3036;SDS011;1528;52.550;13.408;2023-11-18T04:42:56;14.50;;;13.60;;
3036;SDS011;1528;52.550;13.408;2023-11-18T04:45:44;16.50;;;15.50;;
3036;SDS011;1528;52.550;13.408;2023-11-18T04:48:29;14.13;;;13.13;;
3036;SDS011;1528;52.550;13.408;2023-11-18T04:51:16;12.97;;;11.97;;
3036;SDS011;1528;52.550;13.408;2023-11-18T04:54:02;15.53;;;14.43;;
3036;SDS011;1528;52.550;13.408;2023-11-18T04:56:49;16.17;;;14.73;;
3036;SDS011;1528;52.550;13.408;2023-11-18T04:59:35;16.10;;;15.10;;
3036;SDS011;1528;52.550;13.408;2023-11-18T05:02:20;15.70;;;14.70;;
3036;SDS011;1528;52.550;13.408;2023-11-18T05:05:06;14.37;;;13.57;;
3036;SDS011;1528;52.550;13.408;2023-11-18T05:07:52;15.00;;;14.10;;
3036;SDS011;1528;52.550;13.408;2023-11-18T05:10:37;13.53;;;12.60;;
3036;SDS011;1528;52.550;13.408;2023-11-18T05:13:24;14.27;;;13.30;;
3036;SDS011;1528;52.550;13.408;2023-11-18T05:16:10;15.60;;;14.60;;
3036;SDS011;1528;52.550;13.408;2023-11-18T05:18:56;14.90;;;13.87;;
3036;SDS011;1528;52.550;13.408;2023-11-18T05:21:42;14.30;;;13.27;;
3036;SDS011;1528;52.550;13.408;2023-11-18T05:24:27;13.93;;;13.03;;
3036;SDS011;1528;52.550;13.408;2023-11-18T05:27:13;15.60;;;14.53;;
3036;SDS011;1528;52.550;13.408;2023-11-18T05:30:02;15.87;;;14.60;;
3036;SDS011;1528;52.550;13.408;2023-11-18T05:32:49;13.60;;;12.70;;
3036;SDS011;1528;52.550;13.408;2023-11-18T05:35:35;14.87;;;13.67;;
3036;SDS011;1528;52.550;13.408;2023-11-18T05:38:20;15.03;;;14.03;;
3036;SDS011;1528;52.550;13.408;2023-11-18T05:41:07;14.03;;;13.13;;
3036;SDS011;1528;52.550;13.408;2023-11-18T05:44:00;15.67;;;14.67;;
3036;SDS011;1528;52.550;13.408;2023-11-18T05:46:47;17.13;;;15.83;;
3036;SDS011;1528;52.550;13.408;2023-11-18T05:49:35;14.20;;;13.30;;
3036;SDS011;1528;52.550;13.408;2023-11-18T05:52:20;15.97;;;14.87;;
3036;SDS011;1528;52.550;13.408;2023-11-18T05:55:07;15.80;;;14.70;;
3036;SDS011;1528;52.550;13.408;2023-11-18T05:57:52;15.13;;;13.97;;
3036;SDS011;1528;52.550;13.408;2023-11-18T06:00:38;14.17;;;13.20;;
3036;SDS011;1528;52.550;13.408;2023-11-18T06:03:25;14.80;;;13.80;;
3036;SDS011;1528;52.550;13.408;2023-11-18T06:06:11;15.07;;;13.87;;
3036;SDS011;1528;52.550;13.408;2023-11-18T06:08:59;13.47;;;12.40;;
3036;SDS011;1528;52.550;13.408;2023-11-18T06:11:51;15.63;;;14.63;;
3036;SDS011;1528;52.550;13.408;2023-11-18T06:14:37;16.47;;;15.30;;
3036;SDS011;1528;52.550;13.408;2023-11-18T06:17:23;15.67;;;14.57;;
3036;SDS011;1528;52.550;13.408;2023-11-18T06:20:10;15.83;;;14.70;;
3036;SDS011;1528;52.550;13.408;2023-11-18T06:22:57;17.57;;;16.47;;
3036;SDS011;1528;52.550;13.408;2023-11-18T06:25:43;15.70;;;14.63;;
3036;SDS011;1528;52.550;13.408;2023-11-18T06:28:29;14.80;;;13.80;;
3036;SDS011;1528;52.550;13.408;2023-11-18T06:31:16;16.15;;;15.00;;
3036;SDS011;1528;52.550;13.408;2023-11-18T06:34:02;16.43;;;15.30;;
3036;SDS011;1528;52.550;13.408;2023-11-18T06:36:49;16.00;;;14.93;;
3036;SDS011;1528;52.550;13.408;2023-11-18T06:39:34;15.40;;;14.30;;
3036;SDS011;1528;52.550;13.408;2023-11-18T06:42:23;15.90;;;14.80;;
3036;SDS011;1528;52.550;13.408;2023-11-18T06:45:09;18.27;;;16.80;;
3036;SDS011;1528;52.550;13.408;2023-11-18T06:47:55;17.70;;;16.60;;
3036;SDS011;1528;52.550;13.408;2023-11-18T06:50:40;17.00;;;15.80;;
3036;SDS011;1528;52.550;13.408;2023-11-18T06:53:29;15.47;;;14.37;;
3036;SDS011;1528;52.550;13.408;2023-11-18T06:56:14;16.50;;;15.30;;
3036;SDS011;1528;52.550;13.408;2023-11-18T06:58:59;17.10;;;15.90;;
3036;SDS011;1528;52.550;13.408;2023-11-18T07:01:45;16.50;;;15.30;;
3036;SDS011;1528;52.550;13.408;2023-11-18T07:04:31;16.87;;;15.77;;
3036;SDS011;1528;52.550;13.408;2023-11-18T07:07:17;17.30;;;15.90;;
3036;SDS011;1528;52.550;13.408;2023-11-18T07:10:04;16.47;;;15.07;;
3036;SDS011;1528;52.550;13.408;2023-11-18T07:12:51;17.80;;;16.50;;
3036;SDS011;1528;52.550;13.408;2023-11-18T07:15:37;17.40;;;16.10;;
3036;SDS011;1528;52.550;13.408;2023-11-18T07:18:22;15.93;;;14.63;;
3036;SDS011;1528;52.550;13.408;2023-11-18T07:21:08;16.73;;;15.50;;
3036;SDS011;1528;52.550;13.408;2023-11-18T07:23:54;16.93;;;15.73;;
3036;SDS011;1528;52.550;13.408;2023-11-18T07:26:41;17.43;;;16.20;;
3036;SDS011;1528;52.550;13.408;2023-11-18T07:29:27;17.00;;;15.90;;
3036;SDS011;1528;52.550;13.408;2023-11-18T07:32:13;17.40;;;15.63;;
3036;SDS011;1528;52.550;13.408;2023-11-18T07:34:58;17.40;;;16.20;;
3036;SDS011;1528;52.550;13.408;2023-11-18T07:37:44;19.33;;;17.93;;
3036;SDS011;1528;52.550;13.408;2023-11-18T07:40:30;18.77;;;17.47;;
3036;SDS011;1528;52.550;13.408;2023-11-18T07:43:18;17.83;;;16.43;;
3036;SDS011;1528;52.550;13.408;2023-11-18T07:46:05;18.00;;;16.73;;
3036;SDS011;1528;52.550;13.408;2023-11-18T07:48:51;17.60;;;16.20;;
3036;SDS011;1528;52.550;13.408;2023-11-18T07:51:37;17.53;;;16.23;;
3036;SDS011;1528;52.550;13.408;2023-11-18T07:54:24;21.33;;;19.27;;
3036;SDS011;1528;52.550;13.408;2023-11-18T07:57:09;19.13;;;17.63;;
3036;SDS011;1528;52.550;13.408;2023-11-18T07:59:56;18.73;;;17.30;;
3036;SDS011;1528;52.550;13.408;2023-11-18T08:02:49;20.10;;;18.73;;
3036;SDS011;1528;52.550;13.408;2023-11-18T08:05:35;16.30;;;14.90;;
3036;SDS011;1528;52.550;13.408;2023-11-18T08:08:20;18.57;;;17.17;;
3036;SDS011;1528;52.550;13.408;2023-11-18T08:11:06;18.30;;;16.70;;
3036;SDS011;1528;52.550;13.408;2023-11-18T08:13:52;16.27;;;15.00;;
3036;SDS011;1528;52.550;13.408;2023-11-18T08:16:38;18.60;;;17.20;;
3036;SDS011;1528;52.550;13.408;2023-11-18T08:19:24;20.30;;;19.00;;
3036;SDS011;1528;52.550;13.408;2023-11-18T08:22:10;17.60;;;16.40;;
3036;SDS011;1528;52.550;13.408;2023-11-18T08:24:57;17.97;;;16.80;;
3036;SDS011;1528;52.550;13.408;2023-11-18T08:27:43;15.40;;;14.40;;
3036;SDS011;1528;52.550;13.408;2023-11-18T08:30:29;19.60;;;18.07;;
3036;SDS011;1528;52.550;13.408;2023-11-18T08:33:18;17.03;;;15.83;;
3036;SDS011;1528;52.550;13.408;2023-11-18T08:36:04;17.07;;;15.87;;
3036;SDS011;1528;52.550;13.408;2023-11-18T08:38:51;17.70;;;16.60;;
3036;SDS011;1528;52.550;13.408;2023-11-18T08:41:38;16.53;;;15.53;;
3036;SDS011;1528;52.550;13.408;2023-11-18T08:44:24;18.20;;;16.90;;
3036;SDS011;1528;52.550;13.408;2023-11-18T08:47:09;16.00;;;14.90;;
3036;SDS011;1528;52.550;13.408;2023-11-18T08:49:57;16.73;;;15.43;;
3036;SDS011;1528;52.550;13.408;2023-11-18T08:52:55;17.43;;;16.30;;
3036;SDS011;1528;52.550;13.408;2023-11-18T08:55:42;18.50;;;17.30;;
3036;SDS011;1528;52.550;13.408;2023-11-18T08:58:34;15.93;;;14.70;;
3036;SDS011;1528;52.550;13.408;2023-11-18T09:01:21;15.97;;;14.83;;
3036;SDS011;1528;52.550;13.408;2023-11-18T09:04:11;17.67;;;16.57;;
3036;SDS011;1528;52.550;13.408;2023-11-18T09:06:59;15.30;;;14.30;;
3036;SDS011;1528;52.550;13.408;2023-11-18T09:09:45;16.60;;;15.50;;
3036;SDS011;1528;52.550;13.408;2023-11-18T09:12:33;17.20;;;16.00;;
3036;SDS011;1528;52.550;13.408;2023-11-18T09:15:18;14.77;;;13.87;;
3036;SDS011;1528;52.550;13.408;2023-11-18T09:18:06;16.17;;;15.17;;
3036;SDS011;1528;52.550;13.408;2023-11-18T09:20:54;16.47;;;15.27;;
3036;SDS011;1528;52.550;13.408;2023-11-18T09:23:42;17.53;;;16.30;;
3036;SDS011;1528;52.550;13.408;2023-11-18T09:26:28;15.20;;;14.10;;
3036;SDS011;1528;52.550;13.408;2023-11-18T09:29:14;16.27;;;14.90;;
3036;SDS011;1528;52.550;13.408;2023-11-18T09:32:01;15.70;;;14.70;;
3036;SDS011;1528;52.550;13.408;2023-11-18T09:34:49;15.13;;;14.17;;
3036;SDS011;1528;52.550;13.408;2023-11-18T09:37:36;16.57;;;15.47;;
3036;SDS011;1528;52.550;13.408;2023-11-18T09:40:23;18.13;;;16.93;;
3036;SDS011;1528;52.550;13.408;2023-11-18T09:43:13;18.13;;;16.93;;
3036;SDS011;1528;52.550;13.408;2023-11-18T09:46:03;18.80;;;17.70;;
3036;SDS011;1528;52.550;13.408;2023-11-18T09:48:58;18.17;;;17.00;;
3036;SDS011;1528;52.550;13.408;2023-11-18T09:51:58;15.47;;;14.47;;
3036;SDS011;1528;52.550;13.408;2023-11-18T09:54:46;14.37;;;13.40;;
3036;SDS011;1528;52.550;13.408;2023-11-18T09:57:40;16.23;;;15.20;;
3036;SDS011;1528;52.550;13.408;2023-11-18T10:00:28;15.73;;;14.83;;
3036;SDS011;1528;52.550;13.408;2023-11-18T10:03:17;14.97;;;14.17;;
3036;SDS011;1528;52.550;13.408;2023-11-18T10:06:03;15.00;;;13.90;;
3036;SDS011;1528;52.550;13.408;2023-11-18T10:08:49;15.33;;;14.43;;
3036;SDS011;1528;52.550;13.408;2023-11-18T10:11:37;14.83;;;14.03;;
3036;SDS011;1528;52.550;13.408;2023-11-18T10:14:26;15.07;;;14.17;;
3036;SDS011;1528;52.550;13.408;2023-11-18T10:17:13;15.17;;;14.30;;
3036;SDS011;1528;52.550;13.408;2023-11-18T10:20:01;16.93;;;15.83;;
3036;SDS011;1528;52.550;13.408;2023-11-18T10:23:05;14.47;;;13.57;;
3036;SDS011;1528;52.550;13.408;2023-11-18T10:25:54;15.70;;;14.80;;
3036;SDS011;1528;52.550;13.408;2023-11-18T10:28:41;16.33;;;15.33;;
3036;SDS011;1528;52.550;13.408;2023-11-18T10:31:28;16.30;;;15.20;;
3036;SDS011;1528;52.550;13.408;2023-11-18T10:34:15;15.40;;;14.30;;
3036;SDS011;1528;52.550;13.408;2023-11-18T10:37:01;14.97;;;13.97;;
3036;SDS011;1528;52.550;13.408;2023-11-18T10:39:47;16.57;;;15.60;;
3036;SDS011;1528;52.550;13.408;2023-11-18T10:42:34;15.20;;;14.10;;
3036;SDS011;1528;52.550;13.408;2023-11-18T10:45:23;16.23;;;15.23;;
3036;SDS011;1528;52.550;13.408;2023-11-18T10:48:12;13.43;;;12.50;;
3036;SDS011;1528;52.550;13.408;2023-11-18T10:51:00;15.53;;;14.63;;
3036;SDS011;1528;52.550;13.408;2023-11-18T10:53:46;15.33;;;14.53;;
3036;SDS011;1528;52.550;13.408;2023-11-18T10:56:45;13.53;;;12.57;;
3036;SDS011;1528;52.550;13.408;2023-11-18T10:59:31;13.27;;;12.43;;
3036;SDS011;1528;52.550;13.408;2023-11-18T11:02:17;12.00;;;11.10;;
3036;SDS011;1528;52.550;13.408;2023-11-18T11:05:07;14.17;;;13.27;;
3036;SDS011;1528;52.550;13.408;2023-11-18T11:07:58;12.90;;;11.90;;
3036;SDS011;1528;52.550;13.408;2023-11-18T11:10:46;12.37;;;11.47;;
3036;SDS011;1528;52.550;13.408;2023-11-18T11:13:34;14.77;;;13.87;;
3036;SDS011;1528;52.550;13.408;2023-11-18T11:16:21;13.43;;;12.53;;
3036;SDS011;1528;52.550;13.408;2023-11-18T11:19:20;12.83;;;12.13;;
3036;SDS011;1528;52.550;13.408;2023-11-18T11:22:11;11.73;;;11.03;;
3036;SDS011;1528;52.550;13.408;2023-11-18T11:25:07;14.40;;;13.50;;
3036;SDS011;1528;52.550;13.408;2023-11-18T11:28:06;14.47;;;13.53;;
3036;SDS011;1528;52.550;13.408;2023-11-18T11:30:58;13.47;;;12.40;;
3036;SDS011;1528;52.550;13.408;2023-11-18T11:33:55;14.30;;;13.00;;
3036;SDS011;1528;52.550;13.408;2023-11-18T11:36:44;14.63;;;13.63;;
3036;SDS011;1528;52.550;13.408;2023-11-18T11:39:35;13.47;;;12.47;;
3036;SDS011;1528;52.550;13.408;2023-11-18T11:42:30;14.23;;;13.23;;
3036;SDS011;1528;52.550;13.408;2023-11-18T11:45:18;14.23;;;13.13;;
3036;SDS011;1528;52.550;13.408;2023-11-18T11:48:06;15.70;;;14.70;;
3036;SDS011;1528;52.550;13.408;2023-11-18T11:51:02;14.50;;;13.50;;
3036;SDS011;1528;52.550;13.408;2023-11-18T11:54:00;18.40;;;17.20;;
3036;SDS011;1528;52.550;13.408;2023-11-18T11:56:59;17.67;;;16.47;;
3036;SDS011;1528;52.550;13.408;2023-11-18T11:59:55;18.13;;;16.83;;
3036;SDS011;1528;52.550;13.408;2023-11-18T12:02:47;18.50;;;15.80;;
3036;SDS011;1528;52.550;13.408;2023-11-18T12:05:33;19.57;;;18.07;;
3036;SDS011;1528;52.550;13.408;2023-11-18T12:08:27;18.13;;;16.83;;
3036;SDS011;1528;52.550;13.408;2023-11-18T12:11:13;16.67;;;15.43;;
3036;SDS011;1528;52.550;13.408;2023-11-18T12:14:02;16.23;;;15.03;;
3036;SDS011;1528;52.550;13.408;2023-11-18T12:16:59;14.50;;;13.40;;
3036;SDS011;1528;52.550;13.408;2023-11-18T12:19:51;15.30;;;14.10;;
3036;SDS011;1528;52.550;13.408;2023-11-18T12:25:57;14.77;;;13.70;;
3036;SDS011;1528;52.550;13.408;2023-11-18T12:28:45;14.20;;;13.30;;
3036;SDS011;1528;52.550;13.408;2023-11-18T12:31:40;13.20;;;12.30;;
3036;SDS011;1528;52.550;13.408;2023-11-18T12:34:48;13.10;;;12.20;;
3036;SDS011;1528;52.550;13.408;2023-11-18T12:37:45;13.20;;;12.30;;
3036;SDS011;1528;52.550;13.408;2023-11-18T12:40:52;12.80;;;11.80;;
3036;SDS011;1528;52.550;13.408;2023-11-18T12:43:46;12.60;;;11.77;;
3036;SDS011;1528;52.550;13.408;2023-11-18T12:46:48;14.13;;;13.33;;
3036;SDS011;1528;52.550;13.408;2023-11-18T12:49:37;13.53;;;12.73;;
3036;SDS011;1528;52.550;13.408;2023-11-18T12:52:24;13.90;;;12.90;;
3036;SDS011;1528;52.550;13.408;2023-11-18T12:55:11;15.77;;;14.77;;
3036;SDS011;1528;52.550;13.408;2023-11-18T12:58:02;16.37;;;15.33;;
3036;SDS011;1528;52.550;13.408;2023-11-18T13:00:49;16.40;;;15.30;;
3036;SDS011;1528;52.550;13.408;2023-11-18T13:03:36;14.50;;;13.50;;
3036;SDS011;1528;52.550;13.408;2023-11-18T13:06:21;14.17;;;13.27;;
3036;SDS011;1528;52.550;13.408;2023-11-18T13:09:12;14.63;;;13.73;;
3036;SDS011;1528;52.550;13.408;2023-11-18T13:12:08;12.03;;;11.23;;
3036;SDS011;1528;52.550;13.408;2023-11-18T13:14:54;14.23;;;13.33;;
3036;SDS011;1528;52.550;13.408;2023-11-18T13:17:40;14.13;;;13.13;;
3036;SDS011;1528;52.550;13.408;2023-11-18T13:20:27;14.53;;;13.60;;
3036;SDS011;1528;52.550;13.408;2023-11-18T13:23:17;16.63;;;15.43;;
3036;SDS011;1528;52.550;13.408;2023-11-18T13:26:03;14.90;;;13.87;;
3036;SDS011;1528;52.550;13.408;2023-11-18T13:28:49;15.43;;;14.33;;
3036;SDS011;1528;52.550;13.408;2023-11-18T13:31:35;17.77;;;16.57;;
3036;SDS011;1528;52.550;13.408;2023-11-18T13:34:20;15.93;;;14.83;;
3036;SDS011;1528;52.550;13.408;2023-11-18T13:37:08;16.40;;;15.30;;
3036;SDS011;1528;52.550;13.408;2023-11-18T13:39:54;14.97;;;13.97;;
3036;SDS011;1528;52.550;13.408;2023-11-18T13:42:40;16.50;;;15.20;;
3036;SDS011;1528;52.550;13.408;2023-11-18T13:45:25;15.93;;;14.80;;
3036;SDS011;1528;52.550;13.408;2023-11-18T13:48:14;15.30;;;14.20;;
3036;SDS011;1528;52.550;13.408;2023-11-18T13:51:02;16.33;;;15.10;;
3036;SDS011;1528;52.550;13.408;2023-11-18T13:53:53;16.40;;;15.20;;
3036;SDS011;1528;52.550;13.408;2023-11-18T13:56:39;14.20;;;13.30;;
3036;SDS011;1528;52.550;13.408;2023-11-18T13:59:25;15.40;;;14.40;;
3036;SDS011;1528;52.550;13.408;2023-11-18T14:02:11;16.27;;;15.20;;
3036;SDS011;1528;52.550;13.408;2023-11-18T14:04:57;15.53;;;14.23;;
3036;SDS011;1528;52.550;13.408;2023-11-18T14:07:42;15.63;;;14.40;;
3036;SDS011;1528;52.550;13.408;2023-11-18T14:10:30;12.70;;;11.80;;
3036;SDS011;1528;52.550;13.408;2023-11-18T14:13:15;16.57;;;15.27;;
3036;SDS011;1528;52.550;13.408;2023-11-18T14:16:03;12.07;;;11.27;;
3036;SDS011;1528;52.550;13.408;2023-11-18T14:18:53;13.17;;;12.30;;
3036;SDS011;1528;52.550;13.408;2023-11-18T14:21:38;13.73;;;12.73;;
3036;SDS011;1528;52.550;13.408;2023-11-18T14:24:25;12.87;;;11.97;;
3036;SDS011;1528;52.550;13.408;2023-11-18T14:27:12;12.47;;;11.47;;
3036;SDS011;1528;52.550;13.408;2023-11-18T14:29:58;12.57;;;11.77;;
3036;SDS011;1528;52.550;13.408;2023-11-18T14:32:44;12.33;;;11.43;;
3036;SDS011;1528;52.550;13.408;2023-11-18T14:35:31;11.30;;;10.50;;
3036;SDS011;1528;52.550;13.408;2023-11-18T14:38:19;13.03;;;12.10;;
3036;SDS011;1528;52.550;13.408;2023-11-18T14:41:05;11.40;;;10.60;;
3036;SDS011;1528;52.550;13.408;2023-11-18T14:43:54;14.53;;;13.50;;
3036;SDS011;1528;52.550;13.408;2023-11-18T14:46:41;11.87;;;11.07;;
3036;SDS011;1528;52.550;13.408;2023-11-18T14:49:27;13.00;;;12.10;;
3036;SDS011;1528;52.550;13.408;2023-11-18T14:52:16;11.97;;;11.07;;
3036;SDS011;1528;52.550;13.408;2023-11-18T14:55:01;14.70;;;13.70;;
3036;SDS011;1528;52.550;13.408;2023-11-18T14:57:48;16.40;;;15.00;;
3036;SDS011;1528;52.550;13.408;2023-11-18T15:00:35;15.90;;;14.70;;
3036;SDS011;1528;52.550;13.408;2023-11-18T15:03:20;19.10;;;17.33;;
3036;SDS011;1528;52.550;13.408;2023-11-18T15:06:06;19.67;;;18.17;;
3036;SDS011;1528;52.550;13.408;2023-11-18T15:08:55;20.93;;;18.80;;
3036;SDS011;1528;52.550;13.408;2023-11-18T15:11:40;19.20;;;17.80;;
3036;SDS011;1528;52.550;13.408;2023-11-18T15:14:26;19.13;;;17.60;;
3036;SDS011;1528;52.550;13.408;2023-11-18T15:17:13;18.03;;;16.57;;
3036;SDS011;1528;52.550;13.408;2023-11-18T15:19:58;17.87;;;16.47;;
3036;SDS011;1528;52.550;13.408;2023-11-18T15:22:46;20.10;;;18.40;;
3036;SDS011;1528;52.550;13.408;2023-11-18T15:25:31;18.60;;;17.10;;
3036;SDS011;1528;52.550;13.408;2023-11-18T15:28:18;20.03;;;18.33;;
3036;SDS011;1528;52.550;13.408;2023-11-18T15:31:05;21.30;;;19.50;;
3036;SDS011;1528;52.550;13.408;2023-11-18T15:33:53;19.27;;;17.67;;
3036;SDS011;1528;52.550;13.408;2023-11-18T15:36:40;18.10;;;16.70;;
3036;SDS011;1528;52.550;13.408;2023-11-18T15:39:27;22.63;;;20.83;;
3036;SDS011;1528;52.550;13.408;2023-11-18T15:42:12;22.63;;;20.93;;
3036;SDS011;1528;52.550;13.408;2023-11-18T15:44:58;20.07;;;18.47;;
3036;SDS011;1528;52.550;13.408;2023-11-18T15:47:44;19.47;;;17.70;;
3036;SDS011;1528;52.550;13.408;2023-11-18T15:50:33;19.50;;;17.90;;
3036;SDS011;1528;52.550;13.408;2023-11-18T15:53:21;19.40;;;17.53;;
3036;SDS011;1528;52.550;13.408;2023-11-18T15:56:06;19.13;;;17.67;;
3036;SDS011;1528;52.550;13.408;2023-11-18T15:58:53;19.80;;;18.40;;
3036;SDS011;1528;52.550;13.408;2023-11-18T16:01:39;17.07;;;15.67;;
3036;SDS011;1528;52.550;13.408;2023-11-18T16:04:24;20.27;;;18.67;;
3036;SDS011;1528;52.550;13.408;2023-11-18T16:07:11;24.83;;;22.63;;
3036;SDS011;1528;52.550;13.408;2023-11-18T16:09:57;22.60;;;20.80;;
3036;SDS011;1528;52.550;13.408;2023-11-18T16:12:43;23.60;;;21.90;;
3036;SDS011;1528;52.550;13.408;2023-11-18T16:15:30;20.43;;;18.87;;
3036;SDS011;1528;52.550;13.408;2023-11-18T16:18:16;18.50;;;17.20;;
3036;SDS011;1528;52.550;13.408;2023-11-18T16:21:02;17.80;;;16.50;;
3036;SDS011;1528;52.550;13.408;2023-11-18T16:23:50;16.70;;;15.43;;
3036;SDS011;1528;52.550;13.408;2023-11-18T16:26:35;17.13;;;15.83;;
3036;SDS011;1528;52.550;13.408;2023-11-18T16:29:20;15.83;;;14.53;;
3036;SDS011;1528;52.550;13.408;2023-11-18T16:32:06;17.00;;;15.70;;
3036;SDS011;1528;52.550;13.408;2023-11-18T16:34:52;17.60;;;16.30;;
3036;SDS011;1528;52.550;13.408;2023-11-18T16:37:38;17.30;;;15.80;;